sensor_id;sensor_type;location;lat;lon;timestamp;P1;durP1;ratioP1;P2;durP2;ratioP2
69783;SDS011;57054;51.978;4.498;2022-08-19T00:00:18;3.13;;;2.92;;
69783;SDS011;57054;51.978;4.498;2022-08-19T00:02:44;3.15;;;2.95;;
69783;SDS011;57054;51.978;4.498;2022-08-19T00:05:11;3.33;;;3.03;;
69783;SDS011;57054;51.978;4.498;2022-08-19T00:07:39;2.93;;;2.73;;
69783;SDS011;57054;51.978;4.498;2022-08-19T00:10:05;3.05;;;2.85;;
69783;SDS011;57054;51.978;4.498;2022-08-19T00:12:32;4.50;;;3.00;;
69783;SDS011;57054;51.978;4.498;2022-08-19T00:14:58;3.50;;;3.20;;
69783;SDS011;57054;51.978;4.498;2022-08-19T00:17:23;2.78;;;2.58;;
69783;SDS011;57054;51.978;4.498;2022-08-19T00:19:48;3.58;;;2.92;;
69783;SDS011;57054;51.978;4.498;2022-08-19T00:22:14;4.57;;;3.50;;
69783;SDS011;57054;51.978;4.498;2022-08-19T00:24:41;2.80;;;2.60;;
69783;SDS011;57054;51.978;4.498;2022-08-19T00:27:08;4.03;;;3.13;;
69783;SDS011;57054;51.978;4.498;2022-08-19T00:29:33;3.35;;;2.92;;
69783;SDS011;57054;51.978;4.498;2022-08-19T00:31:59;3.85;;;2.90;;
69783;SDS011;57054;51.978;4.498;2022-08-19T00:34:25;3.47;;;2.80;;
69783;SDS011;57054;51.978;4.498;2022-08-19T00:36:53;2.87;;;2.70;;
69783;SDS011;57054;51.978;4.498;2022-08-19T00:39:19;2.90;;;2.70;;
69783;SDS011;57054;51.978;4.498;2022-08-19T00:41:46;3.47;;;2.97;;
69783;SDS011;57054;51.978;4.498;2022-08-19T00:44:14;2.90;;;2.70;;
69783;SDS011;57054;51.978;4.498;2022-08-19T00:46:47;3.80;;;2.60;;
69783;SDS011;57054;51.978;4.498;2022-08-19T00:49:37;3.25;;;3.00;;
69783;SDS011;57054;51.978;4.498;2022-08-19T00:52:04;4.03;;;3.30;;
69783;SDS011;57054;51.978;4.498;2022-08-19T00:54:37;5.35;;;3.55;;
69783;SDS011;57054;51.978;4.498;2022-08-19T00:57:05;3.85;;;3.50;;
69783;SDS011;57054;51.978;4.498;2022-08-19T00:59:36;3.45;;;3.20;;
69783;SDS011;57054;51.978;4.498;2022-08-19T01:02:05;3.17;;;2.88;;
69783;SDS011;57054;51.978;4.498;2022-08-19T01:04:30;3.72;;;3.40;;
69783;SDS011;57054;51.978;4.498;2022-08-19T01:06:56;3.55;;;3.05;;
69783;SDS011;57054;51.978;4.498;2022-08-19T01:09:22;3.10;;;2.90;;
69783;SDS011;57054;51.978;4.498;2022-08-19T01:11:49;3.70;;;3.40;;
69783;SDS011;57054;51.978;4.498;2022-08-19T01:14:15;6.25;;;3.60;;
69783;SDS011;57054;51.978;4.498;2022-08-19T01:16:41;3.65;;;3.35;;
69783;SDS011;57054;51.978;4.498;2022-08-19T01:19:26;3.78;;;3.42;;
69783;SDS011;57054;51.978;4.498;2022-08-19T01:25:06;4.15;;;3.75;;
69783;SDS011;57054;51.978;4.498;2022-08-19T01:28:05;3.70;;;3.40;;
69783;SDS011;57054;51.978;4.498;2022-08-19T01:30:25;4.03;;;3.72;;
69783;SDS011;57054;51.978;4.498;2022-08-19T01:32:53;4.10;;;3.80;;
69783;SDS011;57054;51.978;4.498;2022-08-19T01:35:22;5.93;;;3.70;;
69783;SDS011;57054;51.978;4.498;2022-08-19T01:37:51;4.22;;;3.70;;
69783;SDS011;57054;51.978;4.498;2022-08-19T01:40:23;3.72;;;3.42;;
69783;SDS011;57054;51.978;4.498;2022-08-19T01:42:52;3.50;;;3.20;;
69783;SDS011;57054;51.978;4.498;2022-08-19T01:45:19;3.85;;;3.40;;
69783;SDS011;57054;51.978;4.498;2022-08-19T01:47:45;3.80;;;3.53;;
69783;SDS011;57054;51.978;4.498;2022-08-19T01:50:12;4.18;;;3.63;;
69783;SDS011;57054;51.978;4.498;2022-08-19T01:52:38;5.32;;;3.58;;
69783;SDS011;57054;51.978;4.498;2022-08-19T01:55:07;4.40;;;3.92;;
69783;SDS011;57054;51.978;4.498;2022-08-19T01:57:35;3.67;;;3.38;;
69783;SDS011;57054;51.978;4.498;2022-08-19T02:00:01;4.95;;;3.33;;
69783;SDS011;57054;51.978;4.498;2022-08-19T02:02:32;4.03;;;3.65;;
69783;SDS011;57054;51.978;4.498;2022-08-19T02:04:58;4.25;;;3.90;;
69783;SDS011;57054;51.978;4.498;2022-08-19T02:07:24;4.13;;;3.78;;
69783;SDS011;57054;51.978;4.498;2022-08-19T02:09:49;4.65;;;4.25;;
69783;SDS011;57054;51.978;4.498;2022-08-19T02:12:15;5.07;;;4.68;;
69783;SDS011;57054;51.978;4.498;2022-08-19T02:14:41;5.50;;;5.10;;
69783;SDS011;57054;51.978;4.498;2022-08-19T02:17:07;6.65;;;6.10;;
69783;SDS011;57054;51.978;4.498;2022-08-19T02:19:32;6.90;;;6.30;;
69783;SDS011;57054;51.978;4.498;2022-08-19T02:21:58;7.60;;;6.82;;
69783;SDS011;57054;51.978;4.498;2022-08-19T02:24:25;8.10;;;7.50;;
69783;SDS011;57054;51.978;4.498;2022-08-19T02:26:51;8.30;;;7.55;;
69783;SDS011;57054;51.978;4.498;2022-08-19T02:29:16;8.20;;;7.22;;
69783;SDS011;57054;51.978;4.498;2022-08-19T02:31:42;7.88;;;7.00;;
69783;SDS011;57054;51.978;4.498;2022-08-19T02:34:07;7.93;;;7.13;;
69783;SDS011;57054;51.978;4.498;2022-08-19T02:36:33;8.05;;;7.25;;
69783;SDS011;57054;51.978;4.498;2022-08-19T02:38:58;9.18;;;7.55;;
69783;SDS011;57054;51.978;4.498;2022-08-19T02:41:26;9.57;;;8.50;;
69783;SDS011;57054;51.978;4.498;2022-08-19T02:43:54;9.80;;;8.50;;
69783;SDS011;57054;51.978;4.498;2022-08-19T02:46:22;11.73;;;9.88;;
69783;SDS011;57054;51.978;4.498;2022-08-19T02:48:54;11.98;;;10.20;;
69783;SDS011;57054;51.978;4.498;2022-08-19T02:53:52;10.65;;;9.68;;
69783;SDS011;57054;51.978;4.498;2022-08-19T02:56:18;12.13;;;10.32;;
69783;SDS011;57054;51.978;4.498;2022-08-19T02:58:43;10.43;;;9.30;;
69783;SDS011;57054;51.978;4.498;2022-08-19T03:01:09;11.40;;;9.27;;
69783;SDS011;57054;51.978;4.498;2022-08-19T03:03:36;11.02;;;9.90;;
69783;SDS011;57054;51.978;4.498;2022-08-19T03:06:09;11.43;;;9.90;;
69783;SDS011;57054;51.978;4.498;2022-08-19T03:08:40;15.38;;;10.75;;
69783;SDS011;57054;51.978;4.498;2022-08-19T03:11:12;12.73;;;11.10;;
69783;SDS011;57054;51.978;4.498;2022-08-19T03:13:38;13.32;;;11.02;;
69783;SDS011;57054;51.978;4.498;2022-08-19T03:16:04;14.43;;;11.95;;
69783;SDS011;57054;51.978;4.498;2022-08-19T03:18:30;14.18;;;12.27;;
69783;SDS011;57054;51.978;4.498;2022-08-19T03:20:56;21.65;;;12.93;;
69783;SDS011;57054;51.978;4.498;2022-08-19T03:23:22;15.80;;;12.20;;
69783;SDS011;57054;51.978;4.498;2022-08-19T03:25:48;14.30;;;12.30;;
69783;SDS011;57054;51.978;4.498;2022-08-19T03:28:17;16.38;;;13.10;;
69783;SDS011;57054;51.978;4.498;2022-08-19T03:30:43;16.20;;;12.80;;
69783;SDS011;57054;51.978;4.498;2022-08-19T03:33:21;15.60;;;11.68;;
69783;SDS011;57054;51.978;4.498;2022-08-19T03:35:58;13.75;;;11.82;;
69783;SDS011;57054;51.978;4.498;2022-08-19T03:38:24;14.95;;;12.10;;
69783;SDS011;57054;51.978;4.498;2022-08-19T03:40:50;13.27;;;11.13;;
69783;SDS011;57054;51.978;4.498;2022-08-19T03:43:15;12.98;;;11.13;;
69783;SDS011;57054;51.978;4.498;2022-08-19T03:45:42;11.10;;;9.95;;
69783;SDS011;57054;51.978;4.498;2022-08-19T03:48:08;13.02;;;10.48;;
69783;SDS011;57054;51.978;4.498;2022-08-19T03:50:33;12.63;;;10.55;;
69783;SDS011;57054;51.978;4.498;2022-08-19T03:53:03;11.65;;;9.82;;
69783;SDS011;57054;51.978;4.498;2022-08-19T03:55:29;14.70;;;10.70;;
69783;SDS011;57054;51.978;4.498;2022-08-19T03:57:54;11.27;;;9.80;;
69783;SDS011;57054;51.978;4.498;2022-08-19T04:00:19;12.55;;;10.60;;
69783;SDS011;57054;51.978;4.498;2022-08-19T04:02:45;16.65;;;12.27;;
69783;SDS011;57054;51.978;4.498;2022-08-19T04:05:10;16.80;;;12.50;;
69783;SDS011;57054;51.978;4.498;2022-08-19T04:07:36;19.98;;;13.70;;
69783;SDS011;57054;51.978;4.498;2022-08-19T04:10:01;18.98;;;12.82;;
69783;SDS011;57054;51.978;4.498;2022-08-19T04:12:28;19.52;;;13.32;;
69783;SDS011;57054;51.978;4.498;2022-08-19T04:14:53;19.48;;;14.05;;
69783;SDS011;57054;51.978;4.498;2022-08-19T04:17:19;18.52;;;13.23;;
69783;SDS011;57054;51.978;4.498;2022-08-19T04:19:44;22.10;;;14.25;;
69783;SDS011;57054;51.978;4.498;2022-08-19T04:22:09;18.13;;;13.18;;
69783;SDS011;57054;51.978;4.498;2022-08-19T04:24:36;20.38;;;13.30;;
69783;SDS011;57054;51.978;4.498;2022-08-19T04:27:02;19.95;;;14.82;;
69783;SDS011;57054;51.978;4.498;2022-08-19T04:29:27;20.45;;;14.50;;
69783;SDS011;57054;51.978;4.498;2022-08-19T04:31:54;23.25;;;15.13;;
69783;SDS011;57054;51.978;4.498;2022-08-19T04:34:21;26.55;;;18.08;;
69783;SDS011;57054;51.978;4.498;2022-08-19T04:36:49;23.27;;;16.08;;
69783;SDS011;57054;51.978;4.498;2022-08-19T04:39:17;23.48;;;16.17;;
69783;SDS011;57054;51.978;4.498;2022-08-19T04:44:29;26.88;;;16.58;;
69783;SDS011;57054;51.978;4.498;2022-08-19T04:46:56;25.08;;;16.30;;
69783;SDS011;57054;51.978;4.498;2022-08-19T04:49:22;25.88;;;16.08;;
69783;SDS011;57054;51.978;4.498;2022-08-19T04:51:49;27.42;;;16.88;;
69783;SDS011;57054;51.978;4.498;2022-08-19T04:54:17;22.50;;;15.15;;
69783;SDS011;57054;51.978;4.498;2022-08-19T04:56:48;24.23;;;15.77;;
69783;SDS011;57054;51.978;4.498;2022-08-19T04:59:15;24.95;;;15.93;;
69783;SDS011;57054;51.978;4.498;2022-08-19T05:01:41;39.42;;;19.77;;
69783;SDS011;57054;51.978;4.498;2022-08-19T05:04:08;28.17;;;16.73;;
69783;SDS011;57054;51.978;4.498;2022-08-19T05:06:34;25.70;;;15.48;;
69783;SDS011;57054;51.978;4.498;2022-08-19T05:09:01;55.25;;;17.70;;
69783;SDS011;57054;51.978;4.498;2022-08-19T05:11:30;34.15;;;16.60;;
69783;SDS011;57054;51.978;4.498;2022-08-19T05:13:58;27.40;;;15.90;;
69783;SDS011;57054;51.978;4.498;2022-08-19T05:16:25;27.55;;;15.60;;
69783;SDS011;57054;51.978;4.498;2022-08-19T05:18:51;26.00;;;16.45;;
69783;SDS011;57054;51.978;4.498;2022-08-19T05:21:35;28.13;;;16.73;;
69783;SDS011;57054;51.978;4.498;2022-08-19T05:24:20;22.95;;;15.35;;
69783;SDS011;57054;51.978;4.498;2022-08-19T05:26:48;25.35;;;15.13;;
69783;SDS011;57054;51.978;4.498;2022-08-19T05:29:16;21.60;;;15.30;;
69783;SDS011;57054;51.978;4.498;2022-08-19T05:31:44;21.65;;;14.70;;
69783;SDS011;57054;51.978;4.498;2022-08-19T05:34:11;20.10;;;15.23;;
69783;SDS011;57054;51.978;4.498;2022-08-19T05:36:40;25.77;;;16.25;;
69783;SDS011;57054;51.978;4.498;2022-08-19T05:39:10;24.27;;;15.98;;
69783;SDS011;57054;51.978;4.498;2022-08-19T05:41:42;24.23;;;15.48;;
69783;SDS011;57054;51.978;4.498;2022-08-19T05:44:09;21.40;;;14.70;;
69783;SDS011;57054;51.978;4.498;2022-08-19T05:46:35;20.65;;;13.05;;
69783;SDS011;57054;51.978;4.498;2022-08-19T05:49:03;21.65;;;15.25;;
69783;SDS011;57054;51.978;4.498;2022-08-19T05:51:31;22.13;;;15.52;;
69783;SDS011;57054;51.978;4.498;2022-08-19T05:53:58;25.83;;;13.93;;
69783;SDS011;57054;51.978;4.498;2022-08-19T05:56:24;17.88;;;13.50;;
69783;SDS011;57054;51.978;4.498;2022-08-19T05:58:50;24.17;;;14.88;;
69783;SDS011;57054;51.978;4.498;2022-08-19T06:01:16;23.05;;;15.25;;
69783;SDS011;57054;51.978;4.498;2022-08-19T06:03:43;17.13;;;14.25;;
69783;SDS011;57054;51.978;4.498;2022-08-19T06:06:11;18.92;;;13.88;;
69783;SDS011;57054;51.978;4.498;2022-08-19T06:08:37;22.00;;;14.25;;
69783;SDS011;57054;51.978;4.498;2022-08-19T06:11:13;22.38;;;15.55;;
69783;SDS011;57054;51.978;4.498;2022-08-19T06:13:41;20.00;;;14.25;;
69783;SDS011;57054;51.978;4.498;2022-08-19T06:16:08;19.50;;;14.85;;
69783;SDS011;57054;51.978;4.498;2022-08-19T06:18:33;22.30;;;15.57;;
69783;SDS011;57054;51.978;4.498;2022-08-19T06:20:59;19.67;;;13.48;;
69783;SDS011;57054;51.978;4.498;2022-08-19T06:23:28;20.00;;;13.52;;
69783;SDS011;57054;51.978;4.498;2022-08-19T06:25:54;19.45;;;13.98;;
69783;SDS011;57054;51.978;4.498;2022-08-19T06:28:19;24.60;;;18.15;;
69783;SDS011;57054;51.978;4.498;2022-08-19T06:30:45;18.50;;;14.27;;
69783;SDS011;57054;51.978;4.498;2022-08-19T06:33:11;21.08;;;15.63;;
69783;SDS011;57054;51.978;4.498;2022-08-19T06:35:40;23.73;;;15.77;;
69783;SDS011;57054;51.978;4.498;2022-08-19T06:38:06;23.60;;;16.45;;
69783;SDS011;57054;51.978;4.498;2022-08-19T06:40:31;20.42;;;14.98;;
69783;SDS011;57054;51.978;4.498;2022-08-19T06:42:56;25.75;;;17.55;;
69783;SDS011;57054;51.978;4.498;2022-08-19T06:45:24;23.92;;;16.33;;
69783;SDS011;57054;51.978;4.498;2022-08-19T06:47:49;21.48;;;14.63;;
69783;SDS011;57054;51.978;4.498;2022-08-19T06:50:20;28.90;;;18.90;;
69783;SDS011;57054;51.978;4.498;2022-08-19T06:52:46;21.77;;;14.80;;
69783;SDS011;57054;51.978;4.498;2022-08-19T06:55:12;25.27;;;15.95;;
69783;SDS011;57054;51.978;4.498;2022-08-19T06:57:38;22.20;;;16.63;;
69783;SDS011;57054;51.978;4.498;2022-08-19T07:00:04;27.08;;;16.65;;
69783;SDS011;57054;51.978;4.498;2022-08-19T07:02:31;21.42;;;15.18;;
69783;SDS011;57054;51.978;4.498;2022-08-19T07:04:56;27.15;;;16.92;;
69783;SDS011;57054;51.978;4.498;2022-08-19T07:07:23;25.23;;;16.60;;
69783;SDS011;57054;51.978;4.498;2022-08-19T07:09:49;30.40;;;19.10;;
69783;SDS011;57054;51.978;4.498;2022-08-19T07:12:15;27.35;;;17.15;;
69783;SDS011;57054;51.978;4.498;2022-08-19T07:14:41;22.38;;;16.83;;
69783;SDS011;57054;51.978;4.498;2022-08-19T07:17:09;24.13;;;18.20;;
69783;SDS011;57054;51.978;4.498;2022-08-19T07:19:36;25.95;;;17.92;;
69783;SDS011;57054;51.978;4.498;2022-08-19T07:22:04;20.37;;;15.87;;
69783;SDS011;57054;51.978;4.498;2022-08-19T07:24:32;33.20;;;19.57;;
69783;SDS011;57054;51.978;4.498;2022-08-19T07:26:59;19.55;;;15.60;;
69783;SDS011;57054;51.978;4.498;2022-08-19T07:29:28;26.92;;;18.40;;
69783;SDS011;57054;51.978;4.498;2022-08-19T07:31:56;19.75;;;16.25;;
69783;SDS011;57054;51.978;4.498;2022-08-19T07:34:24;16.88;;;13.93;;
69783;SDS011;57054;51.978;4.498;2022-08-19T07:36:50;20.65;;;15.48;;
69783;SDS011;57054;51.978;4.498;2022-08-19T07:39:18;23.45;;;15.05;;
69783;SDS011;57054;51.978;4.498;2022-08-19T07:41:46;16.13;;;12.32;;
69783;SDS011;57054;51.978;4.498;2022-08-19T07:44:13;15.85;;;12.65;;
69783;SDS011;57054;51.978;4.498;2022-08-19T07:46:44;26.75;;;16.48;;
69783;SDS011;57054;51.978;4.498;2022-08-19T07:49:11;21.52;;;15.00;;
69783;SDS011;57054;51.978;4.498;2022-08-19T07:51:42;21.50;;;12.85;;
69783;SDS011;57054;51.978;4.498;2022-08-19T07:54:09;14.77;;;12.38;;
69783;SDS011;57054;51.978;4.498;2022-08-19T07:56:34;18.65;;;13.45;;
69783;SDS011;57054;51.978;4.498;2022-08-19T07:59:00;15.73;;;11.85;;
69783;SDS011;57054;51.978;4.498;2022-08-19T08:01:26;17.27;;;13.57;;
69783;SDS011;57054;51.978;4.498;2022-08-19T08:03:53;18.73;;;12.75;;
69783;SDS011;57054;51.978;4.498;2022-08-19T08:06:40;17.60;;;12.43;;
69783;SDS011;57054;51.978;4.498;2022-08-19T08:09:27;20.63;;;13.82;;
69783;SDS011;57054;51.978;4.498;2022-08-19T08:12:09;22.33;;;14.93;;
69783;SDS011;57054;51.978;4.498;2022-08-19T08:14:41;19.92;;;13.23;;
69783;SDS011;57054;51.978;4.498;2022-08-19T08:17:13;18.70;;;12.75;;
69783;SDS011;57054;51.978;4.498;2022-08-19T08:19:41;14.65;;;10.98;;
69783;SDS011;57054;51.978;4.498;2022-08-19T08:22:07;18.42;;;12.30;;
69783;SDS011;57054;51.978;4.498;2022-08-19T08:24:53;17.90;;;12.63;;
69783;SDS011;57054;51.978;4.498;2022-08-19T08:27:19;16.33;;;11.50;;
69783;SDS011;57054;51.978;4.498;2022-08-19T08:29:44;14.98;;;10.88;;
69783;SDS011;57054;51.978;4.498;2022-08-19T08:32:10;12.57;;;11.10;;
69783;SDS011;57054;51.978;4.498;2022-08-19T08:34:36;25.25;;;11.73;;
69783;SDS011;57054;51.978;4.498;2022-08-19T08:37:02;15.68;;;11.02;;
69783;SDS011;57054;51.978;4.498;2022-08-19T08:39:28;12.60;;;10.52;;
69783;SDS011;57054;51.978;4.498;2022-08-19T08:42:18;17.40;;;10.88;;
69783;SDS011;57054;51.978;4.498;2022-08-19T08:47:18;8.68;;;7.88;;
69783;SDS011;57054;51.978;4.498;2022-08-19T08:49:52;13.70;;;9.68;;
69783;SDS011;57054;51.978;4.498;2022-08-19T08:52:34;15.07;;;9.95;;
69783;SDS011;57054;51.978;4.498;2022-08-19T08:55:10;11.18;;;7.68;;
69783;SDS011;57054;51.978;4.498;2022-08-19T09:00:23;15.60;;;8.30;;
69783;SDS011;57054;51.978;4.498;2022-08-19T09:02:55;12.23;;;7.85;;
69783;SDS011;57054;51.978;4.498;2022-08-19T09:05:22;12.07;;;7.57;;
69783;SDS011;57054;51.978;4.498;2022-08-19T09:07:57;10.50;;;8.20;;
69783;SDS011;57054;51.978;4.498;2022-08-19T09:16:27;11.30;;;7.32;;
69783;SDS011;57054;51.978;4.498;2022-08-19T09:18:54;13.77;;;8.13;;
69783;SDS011;57054;51.978;4.498;2022-08-19T09:21:24;11.40;;;7.30;;
69783;SDS011;57054;51.978;4.498;2022-08-19T09:23:51;11.15;;;7.03;;
69783;SDS011;57054;51.978;4.498;2022-08-19T09:26:18;10.90;;;6.95;;
69783;SDS011;57054;51.978;4.498;2022-08-19T09:28:46;11.10;;;6.25;;
69783;SDS011;57054;51.978;4.498;2022-08-19T09:31:13;8.00;;;5.78;;
69783;SDS011;57054;51.978;4.498;2022-08-19T09:33:41;10.20;;;6.10;;
69783;SDS011;57054;51.978;4.498;2022-08-19T09:36:09;5.38;;;4.72;;
69783;SDS011;57054;51.978;4.498;2022-08-19T09:38:36;5.37;;;4.87;;
69783;SDS011;57054;51.978;4.498;2022-08-19T09:41:05;6.82;;;4.57;;
69783;SDS011;57054;51.978;4.498;2022-08-19T09:43:32;6.22;;;4.72;;
69783;SDS011;57054;51.978;4.498;2022-08-19T09:46:01;7.22;;;5.00;;
69783;SDS011;57054;51.978;4.498;2022-08-19T09:48:27;8.05;;;5.05;;
69783;SDS011;57054;51.978;4.498;2022-08-19T09:50:53;5.45;;;4.75;;
69783;SDS011;57054;51.978;4.498;2022-08-19T09:53:19;8.93;;;5.28;;
69783;SDS011;57054;51.978;4.498;2022-08-19T09:55:47;6.10;;;4.22;;
69783;SDS011;57054;51.978;4.498;2022-08-19T09:58:12;6.78;;;4.35;;
69783;SDS011;57054;51.978;4.498;2022-08-19T10:00:38;5.68;;;4.10;;
69783;SDS011;57054;51.978;4.498;2022-08-19T10:03:03;5.60;;;4.85;;
69783;SDS011;57054;51.978;4.498;2022-08-19T10:05:29;6.18;;;4.10;;
69783;SDS011;57054;51.978;4.498;2022-08-19T10:08:13;4.57;;;3.25;;
69783;SDS011;57054;51.978;4.498;2022-08-19T10:10:38;6.57;;;4.10;;
69783;SDS011;57054;51.978;4.498;2022-08-19T10:13:03;7.32;;;4.53;;
69783;SDS011;57054;51.978;4.498;2022-08-19T10:15:29;7.43;;;4.70;;
69783;SDS011;57054;51.978;4.498;2022-08-19T10:17:54;5.07;;;4.20;;
69783;SDS011;57054;51.978;4.498;2022-08-19T10:20:20;5.00;;;4.18;;
69783;SDS011;57054;51.978;4.498;2022-08-19T10:22:47;4.75;;;4.38;;
69783;SDS011;57054;51.978;4.498;2022-08-19T10:25:13;3.92;;;3.63;;
69783;SDS011;57054;51.978;4.498;2022-08-19T10:27:41;7.82;;;3.28;;
69783;SDS011;57054;51.978;4.498;2022-08-19T10:30:07;4.60;;;4.07;;
69783;SDS011;57054;51.978;4.498;2022-08-19T10:32:34;7.22;;;3.38;;
69783;SDS011;57054;51.978;4.498;2022-08-19T10:34:59;3.03;;;2.80;;
69783;SDS011;57054;51.978;4.498;2022-08-19T10:37:25;3.45;;;2.40;;
69783;SDS011;57054;51.978;4.498;2022-08-19T10:39:51;4.78;;;2.50;;
69783;SDS011;57054;51.978;4.498;2022-08-19T10:42:16;3.10;;;2.35;;
69783;SDS011;57054;51.978;4.498;2022-08-19T10:44:43;3.58;;;2.70;;
69783;SDS011;57054;51.978;4.498;2022-08-19T10:47:09;3.63;;;2.30;;
69783;SDS011;57054;51.978;4.498;2022-08-19T10:49:34;2.45;;;2.22;;
69783;SDS011;57054;51.978;4.498;2022-08-19T10:52:20;2.88;;;2.10;;
69783;SDS011;57054;51.978;4.498;2022-08-19T10:55:06;3.85;;;2.03;;
69783;SDS011;57054;51.978;4.498;2022-08-19T10:57:50;2.10;;;1.70;;
69783;SDS011;57054;51.978;4.498;2022-08-19T11:00:17;1.95;;;1.60;;
69783;SDS011;57054;51.978;4.498;2022-08-19T11:02:43;2.38;;;1.63;;
69783;SDS011;57054;51.978;4.498;2022-08-19T11:05:08;2.88;;;1.60;;
69783;SDS011;57054;51.978;4.498;2022-08-19T11:07:40;4.03;;;1.60;;
69783;SDS011;57054;51.978;4.498;2022-08-19T11:10:07;2.92;;;1.77;;
69783;SDS011;57054;51.978;4.498;2022-08-19T11:12:36;2.42;;;1.67;;
69783;SDS011;57054;51.978;4.498;2022-08-19T11:15:04;3.03;;;2.20;;
69783;SDS011;57054;51.978;4.498;2022-08-19T11:17:32;1.48;;;1.38;;
69783;SDS011;57054;51.978;4.498;2022-08-19T11:19:58;2.30;;;2.03;;
69783;SDS011;57054;51.978;4.498;2022-08-19T11:22:23;1.92;;;1.60;;
69783;SDS011;57054;51.978;4.498;2022-08-19T11:24:48;3.28;;;1.88;;
69783;SDS011;57054;51.978;4.498;2022-08-19T11:27:14;2.00;;;1.80;;
69783;SDS011;57054;51.978;4.498;2022-08-19T11:29:40;3.00;;;1.77;;
69783;SDS011;57054;51.978;4.498;2022-08-19T11:32:06;1.77;;;1.63;;
69783;SDS011;57054;51.978;4.498;2022-08-19T11:34:39;2.97;;;1.70;;
69783;SDS011;57054;51.978;4.498;2022-08-19T11:37:05;3.00;;;1.73;;
69783;SDS011;57054;51.978;4.498;2022-08-19T11:39:31;2.38;;;1.65;;
69783;SDS011;57054;51.978;4.498;2022-08-19T11:41:58;5.88;;;2.10;;
69783;SDS011;57054;51.978;4.498;2022-08-19T11:44:25;3.92;;;1.45;;
69783;SDS011;57054;51.978;4.498;2022-08-19T11:46:51;5.20;;;1.75;;
69783;SDS011;57054;51.978;4.498;2022-08-19T11:49:18;3.28;;;1.80;;
69783;SDS011;57054;51.978;4.498;2022-08-19T11:51:44;9.95;;;2.17;;
69783;SDS011;57054;51.978;4.498;2022-08-19T11:54:10;2.45;;;1.30;;
69783;SDS011;57054;51.978;4.498;2022-08-19T11:56:37;6.47;;;1.70;;
69783;SDS011;57054;51.978;4.498;2022-08-19T11:59:04;6.25;;;1.73;;
69783;SDS011;57054;51.978;4.498;2022-08-19T12:01:29;5.45;;;1.50;;
69783;SDS011;57054;51.978;4.498;2022-08-19T12:03:55;5.18;;;2.00;;
69783;SDS011;57054;51.978;4.498;2022-08-19T12:06:23;4.07;;;2.20;;
69783;SDS011;57054;51.978;4.498;2022-08-19T12:08:57;3.08;;;2.63;;
69783;SDS011;57054;51.978;4.498;2022-08-19T12:11:25;8.57;;;2.13;;
69783;SDS011;57054;51.978;4.498;2022-08-19T12:13:51;5.38;;;2.25;;
69783;SDS011;57054;51.978;4.498;2022-08-19T12:16:21;3.53;;;2.38;;
69783;SDS011;57054;51.978;4.498;2022-08-19T12:18:49;3.53;;;1.80;;
69783;SDS011;57054;51.978;4.498;2022-08-19T12:21:16;6.70;;;2.10;;
69783;SDS011;57054;51.978;4.498;2022-08-19T12:23:46;3.45;;;1.95;;
69783;SDS011;57054;51.978;4.498;2022-08-19T12:26:11;2.20;;;2.03;;
69783;SDS011;57054;51.978;4.498;2022-08-19T12:28:37;2.35;;;1.92;;
69783;SDS011;57054;51.978;4.498;2022-08-19T12:31:03;4.20;;;2.65;;
69783;SDS011;57054;51.978;4.498;2022-08-19T12:33:28;2.58;;;2.13;;
69783;SDS011;57054;51.978;4.498;2022-08-19T12:35:54;3.05;;;2.35;;
69783;SDS011;57054;51.978;4.498;2022-08-19T12:38:24;2.28;;;1.70;;
69783;SDS011;57054;51.978;4.498;2022-08-19T12:40:49;3.55;;;1.70;;
69783;SDS011;57054;51.978;4.498;2022-08-19T12:43:17;2.65;;;2.42;;
69783;SDS011;57054;51.978;4.498;2022-08-19T12:45:42;2.67;;;2.47;;
69783;SDS011;57054;51.978;4.498;2022-08-19T12:48:09;2.58;;;2.38;;
69783;SDS011;57054;51.978;4.498;2022-08-19T12:50:34;2.47;;;2.28;;
69783;SDS011;57054;51.978;4.498;2022-08-19T12:53:02;2.80;;;2.35;;
69783;SDS011;57054;51.978;4.498;2022-08-19T12:55:28;3.05;;;2.30;;
69783;SDS011;57054;51.978;4.498;2022-08-19T12:57:54;2.35;;;2.15;;
69783;SDS011;57054;51.978;4.498;2022-08-19T13:00:20;2.92;;;2.30;;
69783;SDS011;57054;51.978;4.498;2022-08-19T13:02:46;3.58;;;2.35;;
69783;SDS011;57054;51.978;4.498;2022-08-19T13:05:16;3.33;;;2.50;;
69783;SDS011;57054;51.978;4.498;2022-08-19T13:07:47;2.65;;;2.42;;
69783;SDS011;57054;51.978;4.498;2022-08-19T13:10:15;2.67;;;2.47;;
69783;SDS011;57054;51.978;4.498;2022-08-19T13:12:47;3.60;;;2.85;;
69783;SDS011;57054;51.978;4.498;2022-08-19T13:15:14;2.72;;;2.22;;
69783;SDS011;57054;51.978;4.498;2022-08-19T13:17:45;2.67;;;2.47;;
69783;SDS011;57054;51.978;4.498;2022-08-19T13:20:12;2.78;;;2.20;;
69783;SDS011;57054;51.978;4.498;2022-08-19T13:22:38;5.85;;;2.08;;
69783;SDS011;57054;51.978;4.498;2022-08-19T13:25:04;4.72;;;2.22;;
69783;SDS011;57054;51.978;4.498;2022-08-19T13:27:30;5.63;;;2.20;;
69783;SDS011;57054;51.978;4.498;2022-08-19T13:29:56;8.32;;;1.85;;
69783;SDS011;57054;51.978;4.498;2022-08-19T13:32:40;7.95;;;1.92;;
69783;SDS011;57054;51.978;4.498;2022-08-19T13:35:26;2.10;;;1.25;;
69783;SDS011;57054;51.978;4.498;2022-08-19T13:37:52;3.92;;;1.45;;
69783;SDS011;57054;51.978;4.498;2022-08-19T13:40:19;4.75;;;1.20;;
69783;SDS011;57054;51.978;4.498;2022-08-19T13:42:49;1.20;;;1.08;;
69783;SDS011;57054;51.978;4.498;2022-08-19T13:45:17;1.90;;;1.10;;
69783;SDS011;57054;51.978;4.498;2022-08-19T13:47:51;7.63;;;1.63;;
69783;SDS011;57054;51.978;4.498;2022-08-19T13:50:20;3.75;;;1.50;;
69783;SDS011;57054;51.978;4.498;2022-08-19T13:52:49;3.33;;;1.00;;
69783;SDS011;57054;51.978;4.498;2022-08-19T13:55:15;1.65;;;1.38;;
69783;SDS011;57054;51.978;4.498;2022-08-19T13:57:40;2.70;;;1.40;;
69783;SDS011;57054;51.978;4.498;2022-08-19T14:00:11;1.20;;;1.10;;
69783;SDS011;57054;51.978;4.498;2022-08-19T14:02:39;1.55;;;1.45;;
69783;SDS011;57054;51.978;4.498;2022-08-19T14:05:07;1.30;;;1.20;;
69783;SDS011;57054;51.978;4.498;2022-08-19T14:07:35;2.45;;;1.13;;
69783;SDS011;57054;51.978;4.498;2022-08-19T14:10:01;1.10;;;0.95;;
69783;SDS011;57054;51.978;4.498;2022-08-19T14:12:27;2.45;;;1.20;;
69783;SDS011;57054;51.978;4.498;2022-08-19T14:14:53;1.20;;;1.10;;
69783;SDS011;57054;51.978;4.498;2022-08-19T14:17:18;2.95;;;1.30;;
69783;SDS011;57054;51.978;4.498;2022-08-19T14:19:44;1.05;;;1.05;;
69783;SDS011;57054;51.978;4.498;2022-08-19T14:22:09;1.90;;;1.40;;
69783;SDS011;57054;51.978;4.498;2022-08-19T14:24:36;1.33;;;1.20;;
69783;SDS011;57054;51.978;4.498;2022-08-19T14:27:04;1.27;;;1.20;;
69783;SDS011;57054;51.978;4.498;2022-08-19T14:29:30;2.05;;;1.05;;
69783;SDS011;57054;51.978;4.498;2022-08-19T14:31:56;1.48;;;1.08;;
69783;SDS011;57054;51.978;4.498;2022-08-19T14:34:24;2.67;;;1.00;;
69783;SDS011;57054;51.978;4.498;2022-08-19T14:36:50;1.20;;;1.20;;
69783;SDS011;57054;51.978;4.498;2022-08-19T14:39:15;1.45;;;1.08;;
69783;SDS011;57054;51.978;4.498;2022-08-19T14:41:41;1.70;;;1.05;;
69783;SDS011;57054;51.978;4.498;2022-08-19T14:44:07;3.00;;;1.30;;
69783;SDS011;57054;51.978;4.498;2022-08-19T14:46:35;2.05;;;1.30;;
69783;SDS011;57054;51.978;4.498;2022-08-19T14:49:00;1.50;;;1.17;;
69783;SDS011;57054;51.978;4.498;2022-08-19T14:51:26;2.55;;;1.45;;
69783;SDS011;57054;51.978;4.498;2022-08-19T14:53:51;1.70;;;1.55;;
69783;SDS011;57054;51.978;4.498;2022-08-19T14:56:18;2.08;;;1.70;;
69783;SDS011;57054;51.978;4.498;2022-08-19T14:58:46;2.65;;;1.45;;